MiSS Cape Ann — WDD7942 — position and weather

sailwx.info

Track history (hours):
 
Tides and Currents Weather Stations Pressure Air Temp Water Temp Dewpoint Dewpoint Depression Visibility Wind Speed Wind Dir Waves Ship Positions

MiSS Cape Ann

Owner: Miss Gloucester II Corp, Gloucester, MA. More information available from US FCC via Universal Licensing System and Coast Guard Vessel Documentation Center.

Last reported at 2017-Sep-18 18:24 UTC. Time now 2017-Sep-19 17:22 UTC.
Position N 42°37' W 070°39'.

Type: Ship. MMSI: 367193190.

Date/timePositionNaut miles runAvg speedWind from/ knotsBaromVisibWave heightAir tempDewpointWater temp
2017-Sep-18 18:24N 42°37' W 070°39'0 0.6
2017-Sep-18 18:00N 42°36' W 070°40'4 8.1
2017-Sep-18 17:31N 42°38' W 070°34'4 7.6
2017-Sep-18 17:00N 42°37' W 070°39'0 0.0
2017-Sep-18 16:30N 42°37' W 070°39'0 0.0
2017-Sep-18 16:00N 42°37' W 070°39'0 0.0
2017-Sep-18 15:30N 42°37' W 070°39'0 0.0
2017-Sep-18 15:00N 42°37' W 070°39'0 0.0
2017-Sep-18 14:30N 42°37' W 070°39'0 0.0
2017-Sep-18 14:00N 42°37' W 070°39'0 0.0
2017-Sep-18 13:30N 42°37' W 070°39'0 0.0
2017-Sep-17 22:06N 42°37' W 070°39'0 0.0
2017-Sep-17 22:00N 42°37' W 070°39'0 0.9
2017-Sep-17 21:30N 42°36' W 070°40'510.8
2017-Sep-17 21:00N 42°31' W 070°37'713.6
2017-Sep-17 20:30N 42°27' W 070°31'2 4.8
2017-Sep-17 20:00N 42°25' W 070°28'1 1.4
2017-Sep-17 19:30N 42°26' W 070°28'2 5.0
2017-Sep-17 19:00N 42°27' W 070°31'815.8
2017-Sep-17 18:30N 42°33' W 070°38'4 8.1
2017-Sep-17 18:00N 42°37' W 070°39'0 0.0
2017-Sep-17 17:30N 42°37' W 070°39'0 0.0
2017-Sep-17 17:00N 42°37' W 070°39'3 6.4
2017-Sep-17 16:30N 42°33' W 070°39'612.6
2017-Sep-17 16:00N 42°32' W 070°31'714.4
2017-Sep-17 15:30N 42°32' W 070°21'4 8.7
2017-Sep-17 15:00N 42°33' W 070°16'4 8.8
2017-Sep-17 14:30N 42°30' W 070°20'612.6
2017-Sep-17 14:01N 42°33' W 070°28'5 9.4
2017-Sep-17 13:30N 42°34' W 070°34'5 9.3
2017-Sep-17 13:00N 42°37' W 070°40'0 0.4
2017-Sep-17 12:30N 42°37' W 070°39'0 0.0
2017-Sep-17 02:15N 42°37' W 070°39'0 0.0
2017-Sep-17 02:00N 42°37' W 070°39'1 1.6
2017-Sep-17 01:31N 42°36' W 070°40'1 1.1
2017-Sep-17 01:00N 42°37' W 070°40'0 0.6
2017-Sep-17 00:30N 42°37' W 070°39'0 0.6
2017-Sep-17 00:00N 42°36' W 070°39'1 1.1
2017-Sep-16 23:30N 42°36' W 070°40'1 1.1
2017-Sep-16 23:00N 42°37' W 070°39'0 0.0
2017-Sep-16 22:30N 42°37' W 070°39'0 0.0
2017-Sep-16 22:01N 42°37' W 070°39'0 0.0
2017-Sep-16 21:30N 42°37' W 070°39'0 0.0
2017-Sep-16 21:00N 42°37' W 070°39'3 7.0
2017-Sep-16 20:30N 42°36' W 070°35'1 1.6
2017-Sep-16 20:00N 42°36' W 070°36'0 0.8
2017-Sep-16 19:30N 42°35' W 070°35'1 1.3
2017-Sep-16 19:00N 42°35' W 070°36'0 1.0
2017-Sep-16 18:30N 42°35' W 070°35'3 6.9
2017-Sep-16 18:00N 42°37' W 070°39'0 0.0
2017-Sep-16 17:30N 42°37' W 070°39'2 3.3
2017-Sep-16 17:00N 42°35' W 070°40'816.3
2017-Sep-16 16:30N 42°33' W 070°30'713.3
2017-Sep-16 16:01N 42°30' W 070°22'611.2
2017-Sep-16 15:30N 42°31' W 070°14'1 2.5
2017-Sep-16 15:00N 42°30' W 070°16'2 4.3
2017-Sep-16 14:30N 42°30' W 070°19'611.5
2017-Sep-16 14:00N 42°31' W 070°26'611.7
2017-Sep-16 13:31N 42°34' W 070°33'510.7
2017-Sep-16 13:00N 42°37' W 070°39'0 0.0
2017-Sep-16 12:30N 42°37' W 070°39'0 0.0
2017-Sep-15 18:57N 42°37' W 070°39'0 0.0
2017-Sep-15 18:30N 42°37' W 070°39'2 3.8
2017-Sep-15 18:00N 42°35' W 070°40'917.0
2017-Sep-15 17:30N 42°33' W 070°29'917.0
2017-Sep-15 17:00N 42°32' W 070°18'2 3.6
2017-Sep-15 16:30N 42°32' W 070°16'3 6.8
2017-Sep-15 16:01N 42°34' W 070°19'713.1
2017-Sep-15 15:31N 42°38' W 070°27'510.1
2017-Sep-15 15:00N 42°37' W 070°33'3 5.2
2017-Sep-15 14:30N 42°35' W 070°36'3 5.6
2017-Sep-15 14:01N 42°37' W 070°39'0 0.0
2017-Sep-15 13:30N 42°37' W 070°39'0 0.0
2017-Sep-15 13:00N 42°37' W 070°39'0 0.0
2017-Sep-14 19:08N 42°37' W 070°39'0 0.0
2017-Sep-14 19:00N 42°37' W 070°39'4 7.4
2017-Sep-14 18:30N 42°35' W 070°35'917.2
2017-Sep-14 18:00N 42°35' W 070°23'4 8.5
2017-Sep-14 17:31N 42°35' W 070°18'1 1.5
2017-Sep-14 17:00N 42°35' W 070°18'1 1.6
2017-Sep-14 16:30N 42°35' W 070°19'3 5.4
2017-Sep-14 16:00N 42°36' W 070°22'816.7
2017-Sep-14 15:30N 42°36' W 070°34'4 8.5
2017-Sep-14 15:00N 42°37' W 070°39'0 0.0
2017-Sep-14 14:30N 42°37' W 070°39'0 0.0
2017-Sep-12 18:46N 42°37' W 070°39'0 0.0
2017-Sep-12 18:31N 42°37' W 070°39'3 6.4
2017-Sep-12 18:00N 42°34' W 070°37'714.4
2017-Sep-12 17:31N 42°33' W 070°27'3 6.0
2017-Sep-12 17:00N 42°34' W 070°23'1 1.7
2017-Sep-12 16:30N 42°35' W 070°23'0 0.8
2017-Sep-12 16:00N 42°35' W 070°23'917.4
2017-Sep-12 15:30N 42°35' W 070°35'4 7.8
2017-Sep-12 15:00N 42°37' W 070°39'0 0.0
2017-Sep-12 14:30N 42°37' W 070°39'0 0.0
2017-Sep-11 18:50N 42°37' W 070°39'0 0.1
2017-Sep-11 18:30N 42°37' W 070°39'5 9.2
2017-Sep-11 18:00N 42°35' W 070°34'714.8
2017-Sep-11 17:30N 42°36' W 070°24'2 3.1
2017-Sep-11 17:01N 42°36' W 070°22'2 3.5
2017-Sep-11 16:30N 42°37' W 070°24'0 0.7
2017-Sep-11 16:00N 42°37' W 070°23'815.7
2017-Sep-11 15:31N 42°36' W 070°34'4 8.0
2017-Sep-11 15:00N 42°37' W 070°39'0 0.0
2017-Sep-11 14:30N 42°37' W 070°39'0 0.0
2017-Sep-10 14:46N 42°37' W 070°39'1 0.7
2017-Sep-10 14:00N 42°36' W 070°40'4 8.4
2017-Sep-10 13:30N 42°35' W 070°34'4 8.1
2017-Sep-10 13:01N 42°37' W 070°39'0 0.0
2017-Sep-10 12:30N 42°37' W 070°39'0 0.0
2017-Sep-09 22:52N 42°37' W 070°39'0 0.0
2017-Sep-09 22:30N 42°37' W 070°39'2 3.6
2017-Sep-09 22:00N 42°35' W 070°40'815.9
2017-Sep-09 21:30N 42°36' W 070°30'613.0
2017-Sep-09 21:00N 42°37' W 070°21'4 9.0
2017-Sep-09 20:30N 42°39' W 070°15'1 1.4
2017-Sep-09 20:00N 42°38' W 070°15'4 7.2
2017-Sep-09 19:30N 42°39' W 070°20'713.2
2017-Sep-09 19:00N 42°37' W 070°28'5 9.8
2017-Sep-09 18:30N 42°36' W 070°35'4 7.2
2017-Sep-09 18:00N 42°37' W 070°39'0 0.1
2017-Sep-09 17:30N 42°37' W 070°39'2 3.7
2017-Sep-09 17:00N 42°35' W 070°40'816.7
2017-Sep-09 16:31N 42°37' W 070°29'917.2
2017-Sep-09 16:00N 42°39' W 070°18'4 8.0
2017-Sep-09 15:29N 42°39' W 070°12'5 8.4
2017-Sep-09 14:53N 42°34' W 070°15'0 0.5
2017-Sep-09 14:30N 42°34' W 070°15'611.5
2017-Sep-09 14:00N 42°35' W 070°23'816.2
2017-Sep-09 13:30N 42°35' W 070°34'4 9.0
2017-Sep-09 13:00N 42°37' W 070°39'0 0.0
2017-Sep-09 12:30N 42°37' W 070°39'0 0.0
2017-Sep-08 19:34N 42°37' W 070°39'0 0.1
2017-Sep-08 19:30N 42°37' W 070°39'5 9.6
2017-Sep-08 19:00N 42°34' W 070°34'816.7
2017-Sep-08 18:30N 42°34' W 070°23'  
Track history (hours):
 
Tides and Currents Weather Stations Pressure Air Temp Water Temp Dewpoint Dewpoint Depression Visibility Wind Speed Wind Dir Waves Ship Positions

MiSS Cape Ann

Owner: Miss Gloucester II Corp, Gloucester, MA. More information available from US FCC via Universal Licensing System and Coast Guard Vessel Documentation Center.

Last reported at 2017-Sep-18 18:24 UTC. Time now 2017-Sep-19 17:22 UTC.
Position N 42°37' W 070°39'.

Type: Ship. MMSI: 367193190.

Date/timePositionNaut miles runAvg speedWind from/ knotsBaromVisibWave heightAir tempDewpointWater temp
2017-Sep-18 18:24N 42°37' W 070°39'0 0.6
2017-Sep-18 18:00N 42°36' W 070°40'4 8.1
2017-Sep-18 17:31N 42°38' W 070°34'4 7.6
2017-Sep-18 17:00N 42°37' W 070°39'0 0.0
2017-Sep-18 16:30N 42°37' W 070°39'0 0.0
2017-Sep-18 16:00N 42°37' W 070°39'0 0.0
2017-Sep-18 15:30N 42°37' W 070°39'0 0.0
2017-Sep-18 15:00N 42°37' W 070°39'0 0.0
2017-Sep-18 14:30N 42°37' W 070°39'0 0.0
2017-Sep-18 14:00N 42°37' W 070°39'0 0.0
2017-Sep-18 13:30N 42°37' W 070°39'0 0.0
2017-Sep-17 22:06N 42°37' W 070°39'0 0.0
2017-Sep-17 22:00N 42°37' W 070°39'0 0.9
2017-Sep-17 21:30N 42°36' W 070°40'510.8
2017-Sep-17 21:00N 42°31' W 070°37'713.6
2017-Sep-17 20:30N 42°27' W 070°31'2 4.8
2017-Sep-17 20:00N 42°25' W 070°28'1 1.4
2017-Sep-17 19:30N 42°26' W 070°28'2 5.0
2017-Sep-17 19:00N 42°27' W 070°31'815.8
2017-Sep-17 18:30N 42°33' W 070°38'4 8.1
2017-Sep-17 18:00N 42°37' W 070°39'0 0.0
2017-Sep-17 17:30N 42°37' W 070°39'0 0.0
2017-Sep-17 17:00N 42°37' W 070°39'3 6.4
2017-Sep-17 16:30N 42°33' W 070°39'612.6
2017-Sep-17 16:00N 42°32' W 070°31'714.4
2017-Sep-17 15:30N 42°32' W 070°21'4 8.7
2017-Sep-17 15:00N 42°33' W 070°16'4 8.8
2017-Sep-17 14:30N 42°30' W 070°20'612.6
2017-Sep-17 14:01N 42°33' W 070°28'5 9.4
2017-Sep-17 13:30N 42°34' W 070°34'5 9.3
2017-Sep-17 13:00N 42°37' W 070°40'0 0.4
2017-Sep-17 12:30N 42°37' W 070°39'0 0.0
2017-Sep-17 02:15N 42°37' W 070°39'0 0.0
2017-Sep-17 02:00N 42°37' W 070°39'1 1.6
2017-Sep-17 01:31N 42°36' W 070°40'1 1.1
2017-Sep-17 01:00N 42°37' W 070°40'0 0.6
2017-Sep-17 00:30N 42°37' W 070°39'0 0.6
2017-Sep-17 00:00N 42°36' W 070°39'1 1.1
2017-Sep-16 23:30N 42°36' W 070°40'1 1.1
2017-Sep-16 23:00N 42°37' W 070°39'0 0.0
2017-Sep-16 22:30N 42°37' W 070°39'0 0.0
2017-Sep-16 22:01N 42°37' W 070°39'0 0.0
2017-Sep-16 21:30N 42°37' W 070°39'0 0.0
2017-Sep-16 21:00N 42°37' W 070°39'3 7.0
2017-Sep-16 20:30N 42°36' W 070°35'1 1.6
2017-Sep-16 20:00N 42°36' W 070°36'0 0.8
2017-Sep-16 19:30N 42°35' W 070°35'1 1.3
2017-Sep-16 19:00N 42°35' W 070°36'0 1.0
2017-Sep-16 18:30N 42°35' W 070°35'3 6.9
2017-Sep-16 18:00N 42°37' W 070°39'0 0.0
2017-Sep-16 17:30N 42°37' W 070°39'2 3.3
2017-Sep-16 17:00N 42°35' W 070°40'816.3
2017-Sep-16 16:30N 42°33' W 070°30'713.3
2017-Sep-16 16:01N 42°30' W 070°22'611.2
2017-Sep-16 15:30N 42°31' W 070°14'1 2.5
2017-Sep-16 15:00N 42°30' W 070°16'2 4.3
2017-Sep-16 14:30N 42°30' W 070°19'611.5
2017-Sep-16 14:00N 42°31' W 070°26'611.7
2017-Sep-16 13:31N 42°34' W 070°33'510.7
2017-Sep-16 13:00N 42°37' W 070°39'0 0.0
2017-Sep-16 12:30N 42°37' W 070°39'0 0.0
2017-Sep-15 18:57N 42°37' W 070°39'0 0.0
2017-Sep-15 18:30N 42°37' W 070°39'2 3.8
2017-Sep-15 18:00N 42°35' W 070°40'917.0
2017-Sep-15 17:30N 42°33' W 070°29'917.0
2017-Sep-15 17:00N 42°32' W 070°18'2 3.6
2017-Sep-15 16:30N 42°32' W 070°16'3 6.8
2017-Sep-15 16:01N 42°34' W 070°19'713.1
2017-Sep-15 15:31N 42°38' W 070°27'510.1
2017-Sep-15 15:00N 42°37' W 070°33'3 5.2
2017-Sep-15 14:30N 42°35' W 070°36'3 5.6
2017-Sep-15 14:01N 42°37' W 070°39'0 0.0
2017-Sep-15 13:30N 42°37' W 070°39'0 0.0
2017-Sep-15 13:00N 42°37' W 070°39'0 0.0
2017-Sep-14 19:08N 42°37' W 070°39'0 0.0
2017-Sep-14 19:00N 42°37' W 070°39'4 7.4
2017-Sep-14 18:30N 42°35' W 070°35'917.2
2017-Sep-14 18:00N 42°35' W 070°23'4 8.5
2017-Sep-14 17:31N 42°35' W 070°18'1 1.5
2017-Sep-14 17:00N 42°35' W 070°18'1 1.6
2017-Sep-14 16:30N 42°35' W 070°19'3 5.4
2017-Sep-14 16:00N 42°36' W 070°22'816.7
2017-Sep-14 15:30N 42°36' W 070°34'4 8.5
2017-Sep-14 15:00N 42°37' W 070°39'0 0.0
2017-Sep-14 14:30N 42°37' W 070°39'0 0.0
2017-Sep-12 18:46N 42°37' W 070°39'0 0.0
2017-Sep-12 18:31N 42°37' W 070°39'3 6.4
2017-Sep-12 18:00N 42°34' W 070°37'714.4
2017-Sep-12 17:31N 42°33' W 070°27'3 6.0
2017-Sep-12 17:00N 42°34' W 070°23'1 1.7
2017-Sep-12 16:30N 42°35' W 070°23'0 0.8
2017-Sep-12 16:00N 42°35' W 070°23'917.4
2017-Sep-12 15:30N 42°35' W 070°35'4 7.8
2017-Sep-12 15:00N 42°37' W 070°39'0 0.0
2017-Sep-12 14:30N 42°37' W 070°39'0 0.0
2017-Sep-11 18:50N 42°37' W 070°39'0 0.1
2017-Sep-11 18:30N 42°37' W 070°39'5 9.2
2017-Sep-11 18:00N 42°35' W 070°34'714.8
2017-Sep-11 17:30N 42°36' W 070°24'2 3.1
2017-Sep-11 17:01N 42°36' W 070°22'2 3.5
2017-Sep-11 16:30N 42°37' W 070°24'0 0.7
2017-Sep-11 16:00N 42°37' W 070°23'815.7
2017-Sep-11 15:31N 42°36' W 070°34'4 8.0
2017-Sep-11 15:00N 42°37' W 070°39'0 0.0
2017-Sep-11 14:30N 42°37' W 070°39'0 0.0
2017-Sep-10 14:46N 42°37' W 070°39'1 0.7
2017-Sep-10 14:00N 42°36' W 070°40'4 8.4
2017-Sep-10 13:30N 42°35' W 070°34'4 8.1
2017-Sep-10 13:01N 42°37' W 070°39'0 0.0
2017-Sep-10 12:30N 42°37' W 070°39'0 0.0
2017-Sep-09 22:52N 42°37' W 070°39'0 0.0
2017-Sep-09 22:30N 42°37' W 070°39'2 3.6
2017-Sep-09 22:00N 42°35' W 070°40'815.9
2017-Sep-09 21:30N 42°36' W 070°30'613.0
2017-Sep-09 21:00N 42°37' W 070°21'4 9.0
2017-Sep-09 20:30N 42°39' W 070°15'1 1.4
2017-Sep-09 20:00N 42°38' W 070°15'4 7.2
2017-Sep-09 19:30N 42°39' W 070°20'713.2
2017-Sep-09 19:00N 42°37' W 070°28'5 9.8
2017-Sep-09 18:30N 42°36' W 070°35'4 7.2
2017-Sep-09 18:00N 42°37' W 070°39'0 0.1
2017-Sep-09 17:30N 42°37' W 070°39'2 3.7
2017-Sep-09 17:00N 42°35' W 070°40'816.7
2017-Sep-09 16:31N 42°37' W 070°29'917.2
2017-Sep-09 16:00N 42°39' W 070°18'4 8.0
2017-Sep-09 15:29N 42°39' W 070°12'5 8.4
2017-Sep-09 14:53N 42°34' W 070°15'0 0.5
2017-Sep-09 14:30N 42°34' W 070°15'611.5
2017-Sep-09 14:00N 42°35' W 070°23'816.2
2017-Sep-09 13:30N 42°35' W 070°34'4 9.0
2017-Sep-09 13:00N 42°37' W 070°39'0 0.0
2017-Sep-09 12:30N 42°37' W 070°39'0 0.0
2017-Sep-08 19:34N 42°37' W 070°39'0 0.1
2017-Sep-08 19:30N 42°37' W 070°39'5 9.6
2017-Sep-08 19:00N 42°34' W 070°34'816.7
2017-Sep-08 18:30N 42°34' W 070°23'  

Dump ship's entire track history